Almonesson, New Jersey
Current Conditions -  °F | °C
As of 8:54 PM on Thursday 18 Dec 2014 (Local Time) from KPHL Reporting Station
Overcast Overcast  
Wind Chill: 28°   Ceiling: 3600
Heat Index: 37°   Visibility: 10mi
Dew Point: 25°   Wind: 14mph
Humidity: 62%   Direction: 280°W
Pressure: 30.06"   Gusts: NA
Location:  39.8266°N, 75.1276°W
Report Text: KPHL 190154Z 28012KT 10SM OVC036 03/M04 A3006 RMK AO2 SLP178 T00281039
Loading
Personal Weather Stations






























Interactive Weather Map New forecast layout! Learn more

10-Day Weather Forecast

Advertisements
Track Severe Weather on mobile